createdAt,value
2018-06-23T00:00:51.919Z,4.90
2018-06-23T00:03:20.385Z,7.00
2018-06-23T00:05:48.817Z,4.47
2018-06-23T00:08:17.324Z,6.50
2018-06-23T00:10:45.716Z,5.27
2018-06-23T00:13:14.140Z,6.27
2018-06-23T00:15:42.585Z,6.03
2018-06-23T00:18:11.004Z,6.27
2018-06-23T00:20:39.455Z,5.57
2018-06-23T00:23:07.900Z,5.40
2018-06-23T00:25:41.537Z,7.63
2018-06-23T00:28:09.968Z,6.10
2018-06-23T00:30:38.676Z,6.20
2018-06-23T00:33:07.089Z,6.50
2018-06-23T00:35:35.533Z,5.73
2018-06-23T00:38:03.964Z,5.80
2018-06-23T00:40:32.400Z,5.37
2018-06-23T00:43:00.818Z,4.80
2018-06-23T00:45:29.286Z,5.20
2018-06-23T00:47:57.701Z,7.33
2018-06-23T00:50:26.613Z,5.60
2018-06-23T00:52:55.076Z,6.87
2018-06-23T00:55:23.497Z,7.73
2018-06-23T00:57:51.916Z,6.00
2018-06-23T01:00:20.388Z,6.20
2018-06-23T01:02:48.789Z,6.33
2018-06-23T01:05:17.229Z,6.47
2018-06-23T01:07:45.676Z,5.37
2018-06-23T01:10:14.106Z,6.60
2018-06-23T01:12:42.538Z,6.07
2018-06-23T01:15:11.946Z,8.30
2018-06-23T01:17:40.377Z,6.40
2018-06-23T01:20:08.796Z,5.60
2018-06-23T01:22:37.245Z,6.90
2018-06-23T01:25:05.773Z,6.47
2018-06-23T01:27:34.825Z,6.27
2018-06-23T01:30:03.453Z,5.93
2018-06-23T01:32:31.884Z,6.23
2018-06-23T01:35:00.321Z,7.13
2018-06-23T01:37:28.732Z,6.57
2018-06-23T01:39:57.157Z,6.53
2018-06-23T01:42:25.601Z,5.90
2018-06-23T01:44:54.080Z,6.50
2018-06-23T01:47:22.501Z,6.20
2018-06-23T01:49:50.948Z,6.33
2018-06-23T01:52:19.364Z,6.07
2018-06-23T01:54:47.777Z,6.90
2018-06-23T01:57:16.220Z,6.80
2018-06-23T01:59:44.634Z,7.20
2018-06-23T02:02:12.748Z,8.20
2018-06-23T02:04:41.164Z,7.33
2018-06-23T02:07:09.589Z,6.57
2018-06-23T02:09:38.405Z,6.50
2018-06-23T02:12:07.440Z,6.30
2018-06-23T02:14:41.173Z,5.97
2018-06-23T02:17:14.977Z,6.17
2018-06-23T02:19:48.581Z,6.77
2018-06-23T02:22:22.360Z,6.00
2018-06-23T02:24:56.212Z,6.70
2018-06-23T02:27:30.070Z,6.67
2018-06-23T02:30:03.771Z,6.20
2018-06-23T02:32:37.530Z,6.70
2018-06-23T02:35:07.881Z,7.50
2018-06-23T02:37:37.792Z,6.97
2018-06-23T02:40:06.543Z,6.23
2018-06-23T02:42:35.676Z,6.50
2018-06-23T02:45:05.268Z,6.07
2018-06-23T02:47:33.729Z,5.93
2018-06-23T02:50:02.165Z,6.47
2018-06-23T02:52:31.617Z,6.50
2018-06-23T02:55:00.317Z,6.20
2018-06-23T02:57:28.993Z,7.23
2018-06-23T02:59:57.449Z,7.33
2018-06-23T03:02:26.254Z,7.80
2018-06-23T03:04:55.878Z,7.57
2018-06-23T03:07:24.320Z,7.03
2018-06-23T03:09:52.748Z,8.03
2018-06-23T03:12:21.165Z,6.33
2018-06-23T03:14:49.280Z,7.70
2018-06-23T03:17:18.631Z,6.30
2018-06-23T03:19:48.692Z,5.23
2018-06-23T03:22:17.156Z,7.47
2018-06-23T03:24:45.732Z,6.17
2018-06-23T03:27:14.437Z,6.60
2018-06-23T03:29:42.845Z,6.70
2018-06-23T03:32:11.913Z,5.63
2018-06-23T03:34:40.353Z,5.60
2018-06-23T03:37:08.779Z,6.43
2018-06-23T03:39:37.296Z,4.90
2018-06-23T03:42:05.896Z,7.50
2018-06-23T03:44:34.321Z,7.80
2018-06-23T03:47:02.449Z,6.70
2018-06-23T03:49:30.872Z,6.80
2018-06-23T03:51:59.276Z,6.03
2018-06-23T03:54:27.792Z,6.57
2018-06-23T03:56:55.912Z,5.70
2018-06-23T03:59:24.324Z,7.43
2018-06-23T04:01:52.739Z,5.70
2018-06-23T04:04:21.172Z,7.40
2018-06-23T04:06:49.580Z,6.43
2018-06-23T04:09:18.014Z,6.27
2018-06-23T04:11:46.432Z,5.90
2018-06-23T04:14:14.845Z,5.70
2018-06-23T04:16:43.301Z,8.27
2018-06-23T04:19:11.745Z,7.20
2018-06-23T04:21:40.175Z,6.73
2018-06-23T04:24:08.584Z,6.27
2018-06-23T04:26:37.001Z,6.70
2018-06-23T04:29:05.633Z,7.40
2018-06-23T04:31:34.069Z,6.67
2018-06-23T04:34:02.476Z,7.80
2018-06-23T04:36:30.909Z,5.30
2018-06-23T04:38:59.593Z,6.40
2018-06-23T04:41:28.024Z,6.10
2018-06-23T04:43:56.457Z,5.47
2018-06-23T04:46:24.909Z,7.67
2018-06-23T04:48:53.330Z,6.03
2018-06-23T04:51:21.752Z,5.97
2018-06-23T04:53:50.182Z,6.27
2018-06-23T04:56:18.593Z,5.93
2018-06-23T04:58:46.721Z,6.63
2018-06-23T05:01:15.145Z,6.70
2018-06-23T05:03:43.797Z,6.67
2018-06-23T05:06:12.220Z,4.13
2018-06-23T05:08:40.644Z,6.00
2018-06-23T05:11:09.340Z,6.27
2018-06-23T05:13:37.781Z,5.57
2018-06-23T05:16:06.621Z,6.33
2018-06-23T05:18:35.016Z,6.50
2018-06-23T05:21:03.127Z,6.57
2018-06-23T05:23:31.532Z,6.60
2018-06-23T05:25:59.994Z,7.03
2018-06-23T05:28:28.433Z,6.87
2018-06-23T05:30:56.856Z,5.97
2018-06-23T05:33:25.280Z,6.17
2018-06-23T05:35:53.947Z,7.03
2018-06-23T05:38:22.056Z,5.90
2018-06-23T05:40:50.464Z,6.90
2018-06-23T05:43:18.921Z,5.80
2018-06-23T05:45:47.349Z,6.50
2018-06-23T05:48:15.781Z,6.17
2018-06-23T05:50:44.193Z,7.67
2018-06-23T05:53:12.605Z,6.10
2018-06-23T05:55:41.037Z,6.30
2018-06-23T05:58:09.450Z,5.70
2018-06-23T06:00:37.624Z,6.53
2018-06-23T06:03:05.720Z,7.13
2018-06-23T06:05:34.152Z,6.87
2018-06-23T06:08:02.575Z,7.03
2018-06-23T06:10:31.345Z,5.43
2018-06-23T06:12:59.760Z,7.43
2018-06-23T06:15:28.164Z,6.73
2018-06-23T06:17:56.585Z,5.90
2018-06-23T06:20:24.992Z,5.77
2018-06-23T06:22:53.440Z,4.90
2018-06-23T06:25:22.323Z,6.63
2018-06-23T06:27:50.803Z,5.90
2018-06-23T06:30:18.899Z,5.57
2018-06-23T06:32:47.376Z,6.27
2018-06-23T06:35:15.776Z,6.57
2018-06-23T06:37:44.223Z,6.53
2018-06-23T06:40:12.628Z,4.30
2018-06-23T06:42:41.063Z,5.80
2018-06-23T06:45:09.523Z,5.40
2018-06-23T06:47:38.308Z,4.93
2018-06-23T06:50:06.793Z,5.87
2018-06-23T06:52:34.894Z,5.70
2018-06-23T06:55:03.384Z,5.67
2018-06-23T06:57:31.824Z,5.83
2018-06-23T07:00:00.309Z,5.80
2018-06-23T07:02:28.709Z,5.50
2018-06-23T07:04:57.148Z,5.73
2018-06-23T07:07:25.560Z,5.50
2018-06-23T07:09:53.957Z,6.00
2018-06-23T07:12:22.382Z,6.50
2018-06-23T07:14:50.820Z,6.43
2018-06-23T07:17:19.265Z,5.80
2018-06-23T07:19:47.685Z,6.10
2018-06-23T07:22:16.121Z,5.63
2018-06-23T07:24:44.560Z,5.30
2018-06-23T07:27:12.993Z,5.80
2018-06-23T07:29:41.417Z,6.60
2018-06-23T07:32:09.876Z,5.50
2018-06-23T07:34:38.411Z,5.67
2018-06-23T07:37:06.776Z,5.70
2018-06-23T07:39:34.883Z,4.50
2018-06-23T07:42:03.285Z,4.80
2018-06-23T07:44:31.708Z,4.50
2018-06-23T07:46:59.852Z,5.40
2018-06-23T07:49:28.285Z,4.53
2018-06-23T07:51:56.684Z,4.30
2018-06-23T07:54:25.135Z,4.80
2018-06-23T07:56:53.573Z,5.10
2018-06-23T07:59:21.984Z,4.60
2018-06-23T08:01:50.401Z,4.30
2018-06-23T08:04:18.824Z,5.17
2018-06-23T08:06:47.273Z,6.17
2018-06-23T08:09:15.681Z,6.43
2018-06-23T08:11:43.891Z,7.27
2018-06-23T08:14:12.312Z,6.93
2018-06-23T08:16:40.776Z,8.00
2018-06-23T08:19:08.875Z,8.23
2018-06-23T08:21:37.311Z,8.23
2018-06-23T08:24:05.868Z,6.57
2018-06-23T08:26:34.451Z,6.23
2018-06-23T08:29:02.752Z,7.33
2018-06-23T08:31:31.173Z,7.17
2018-06-23T08:33:59.600Z,7.23
2018-06-23T08:36:28.013Z,7.00
2018-06-23T08:38:56.456Z,6.47
2018-06-23T08:41:24.894Z,6.07
2018-06-23T08:43:53.316Z,5.73
2018-06-23T08:46:21.749Z,6.57
2018-06-23T08:48:50.180Z,6.17
2018-06-23T08:51:18.609Z,5.50
2018-06-23T08:53:47.053Z,6.23
2018-06-23T08:56:15.485Z,5.17
2018-06-23T08:58:43.908Z,5.03
2018-06-23T09:01:12.412Z,4.17
2018-06-23T09:03:40.869Z,4.80
2018-06-23T09:06:09.329Z,5.20
2018-06-23T09:08:37.758Z,5.17
2018-06-23T09:11:06.192Z,4.17
2018-06-23T09:13:34.645Z,4.20
2018-06-23T09:16:02.764Z,4.47
2018-06-23T09:18:31.189Z,4.60
2018-06-23T09:20:59.704Z,5.67
2018-06-23T09:23:28.129Z,5.57
2018-06-23T09:25:56.731Z,4.87
2018-06-23T09:28:25.093Z,4.17
2018-06-23T09:30:53.545Z,5.37
2018-06-23T09:33:22.060Z,5.47
2018-06-23T09:35:50.525Z,5.40
2018-06-23T09:38:18.953Z,4.40
2018-06-23T09:40:47.368Z,3.70
2018-06-23T09:43:16.016Z,4.40
2018-06-23T09:45:44.477Z,4.20
2018-06-23T09:48:12.920Z,4.00
2018-06-23T09:50:41.557Z,5.50
2018-06-23T09:53:09.984Z,4.50
2018-06-23T09:55:38.408Z,4.60
2018-06-23T09:58:06.861Z,4.70
2018-06-23T10:00:35.269Z,4.50
2018-06-23T10:03:03.707Z,3.97
2018-06-23T10:05:32.134Z,3.63
2018-06-23T10:08:01.019Z,3.80
2018-06-23T10:10:30.316Z,3.67
2018-06-23T10:12:58.788Z,4.27
2018-06-23T10:15:27.285Z,4.83
2018-06-23T10:17:55.708Z,3.83
2018-06-23T10:20:24.160Z,4.30
2018-06-23T10:22:52.613Z,4.33
2018-06-23T10:25:21.038Z,4.40
2018-06-23T10:27:49.449Z,4.13
2018-06-23T10:30:18.832Z,3.70
2018-06-23T10:32:47.265Z,3.73
2018-06-23T10:35:15.475Z,4.70
2018-06-23T10:37:43.897Z,3.70
2018-06-23T10:40:12.012Z,3.90
2018-06-23T10:42:40.520Z,3.63
2018-06-23T10:45:08.980Z,4.00
2018-06-23T10:47:37.425Z,3.40
2018-06-23T10:50:05.953Z,4.90
2018-06-23T10:52:34.369Z,4.30
2018-06-23T10:55:03.032Z,4.50
2018-06-23T10:57:31.460Z,3.63
2018-06-23T10:59:59.880Z,3.80
2018-06-23T11:02:28.335Z,4.00
2018-06-23T11:04:56.974Z,3.93
2018-06-23T11:07:24.892Z,4.00
2018-06-23T11:09:53.324Z,4.27
2018-06-23T11:12:21.784Z,3.73
2018-06-23T11:14:50.225Z,3.10
2018-06-23T11:17:18.662Z,3.87
2018-06-23T11:19:47.094Z,3.67
2018-06-23T11:22:15.516Z,2.70
2018-06-23T11:24:44.833Z,3.43
2018-06-23T11:27:13.245Z,3.20
2018-06-23T11:29:41.861Z,3.60
2018-06-23T11:32:10.264Z,2.70
2018-06-23T11:34:38.380Z,3.67
2018-06-23T11:37:06.804Z,2.43
2018-06-23T11:39:35.264Z,2.20
2018-06-23T11:42:03.701Z,3.00
2018-06-23T11:44:32.145Z,2.40
2018-06-23T11:47:00.270Z,3.23
2018-06-23T11:49:28.768Z,3.50
2018-06-23T11:51:57.181Z,2.33
2018-06-23T11:54:25.653Z,3.13
2018-06-23T11:56:53.756Z,3.30
2018-06-23T11:59:22.177Z,2.67
2018-06-23T12:01:50.661Z,2.70
2018-06-23T12:04:24.064Z,3.47
2018-06-23T12:06:52.476Z,2.70
2018-06-23T12:09:21.721Z,2.50
2018-06-23T12:11:50.424Z,3.40
2018-06-23T12:14:18.910Z,3.30
2018-06-23T12:16:47.432Z,3.27
2018-06-23T12:19:15.903Z,2.73
2018-06-23T12:21:44.392Z,2.80
2018-06-23T12:24:12.834Z,2.90
2018-06-23T12:26:41.319Z,3.63
2018-06-23T12:29:09.456Z,3.00
2018-06-23T12:31:37.921Z,2.63
2018-06-23T12:34:06.415Z,2.53
2018-06-23T12:36:34.849Z,3.60
2018-06-23T12:39:04.638Z,3.37
2018-06-23T12:41:33.115Z,3.73
2018-06-23T12:44:01.626Z,3.10
2018-06-23T12:46:30.308Z,2.80
2018-06-23T12:48:58.761Z,3.30
2018-06-23T12:51:27.273Z,2.90
2018-06-23T12:53:55.721Z,2.93
2018-06-23T12:56:24.512Z,3.63
2018-06-23T12:58:52.992Z,4.10
2018-06-23T13:01:21.472Z,3.50
2018-06-23T13:03:49.912Z,4.50
2018-06-23T13:06:18.440Z,4.53
2018-06-23T13:08:46.889Z,4.67
2018-06-23T13:11:15.044Z,4.90
2018-06-23T13:13:43.469Z,4.13
2018-06-23T13:16:12.136Z,4.17
2018-06-23T13:18:40.581Z,4.90
2018-06-23T13:21:09.053Z,4.53
2018-06-23T13:23:37.514Z,3.90
2018-06-23T13:26:06.513Z,4.05
2018-06-23T13:28:34.976Z,3.47
2018-06-23T13:31:03.469Z,4.80
2018-06-23T13:33:31.980Z,4.97
2018-06-23T13:36:00.401Z,4.00
2018-06-23T13:38:28.860Z,3.70
2018-06-23T13:40:56.991Z,3.00
2018-06-23T13:43:25.441Z,3.50
2018-06-23T13:45:53.874Z,4.23
2018-06-23T13:48:22.329Z,3.60
2018-06-23T13:50:50.737Z,3.43
2018-06-23T13:53:18.828Z,3.90
2018-06-23T13:55:47.281Z,3.93
2018-06-23T13:58:15.728Z,4.40
2018-06-23T14:00:44.173Z,4.50
2018-06-23T14:03:12.592Z,4.00
2018-06-23T14:05:41.033Z,3.37
2018-06-23T14:08:09.456Z,3.60
2018-06-23T14:10:37.896Z,4.10
2018-06-23T14:13:06.425Z,3.17
2018-06-23T14:15:34.857Z,4.40
2018-06-23T14:18:03.336Z,3.27
2018-06-23T14:20:31.774Z,3.80
2018-06-23T14:22:59.892Z,3.20
2018-06-23T14:25:28.329Z,3.03
2018-06-23T14:27:56.765Z,3.87
2018-06-23T14:30:25.185Z,3.23
2018-06-23T14:32:53.304Z,3.37
2018-06-23T14:35:21.720Z,3.87
2018-06-23T14:37:50.166Z,3.10
2018-06-23T14:40:18.627Z,2.47
2018-06-23T14:42:47.019Z,2.90
2018-06-23T14:45:15.468Z,3.30
2018-06-23T14:47:43.947Z,3.70
2018-06-23T14:50:12.355Z,3.10
2018-06-23T14:52:40.769Z,3.30
2018-06-23T14:55:08.895Z,3.00
2018-06-23T14:57:37.321Z,4.17
2018-06-23T15:00:05.889Z,3.27
2018-06-23T15:02:34.320Z,4.03
2018-06-23T15:05:02.828Z,4.03
2018-06-23T15:07:31.197Z,3.80
2018-06-23T15:10:10.875Z,3.77
2018-06-23T15:12:50.424Z,3.40
2018-06-23T15:15:18.850Z,4.47
2018-06-23T15:17:47.841Z,3.63
2018-06-23T15:20:16.277Z,3.30
2018-06-23T15:22:44.360Z,2.87
2018-06-23T15:25:12.782Z,3.00
2018-06-23T15:27:41.214Z,2.77
2018-06-23T15:30:09.657Z,3.93
2018-06-23T15:32:38.110Z,3.43
2018-06-23T15:35:06.577Z,3.80
2018-06-23T15:37:35.025Z,5.40
2018-06-23T15:40:03.477Z,4.33
2018-06-23T15:42:31.893Z,4.17
2018-06-23T15:45:00.317Z,3.83
2018-06-23T15:47:28.765Z,4.33
2018-06-23T15:49:57.168Z,3.17
2018-06-23T15:52:25.581Z,3.37
2018-06-23T15:54:53.696Z,4.37
2018-06-23T15:57:22.110Z,4.03
2018-06-23T15:59:50.545Z,3.30
2018-06-23T16:02:18.956Z,4.27
2018-06-23T16:04:47.401Z,3.50
2018-06-23T16:07:15.817Z,3.37
2018-06-23T16:09:44.248Z,3.60
2018-06-23T16:12:12.920Z,3.50
2018-06-23T16:14:41.344Z,3.87
2018-06-23T16:17:09.792Z,3.53
2018-06-23T16:19:38.241Z,2.73
2018-06-23T16:22:06.357Z,3.63
2018-06-23T16:24:34.793Z,3.03
2018-06-23T16:27:03.258Z,2.80
2018-06-23T16:29:31.391Z,3.47
2018-06-23T16:31:59.853Z,2.70
2018-06-23T16:34:28.368Z,2.37
2018-06-23T16:36:56.737Z,3.73
2018-06-23T16:39:25.179Z,3.47
2018-06-23T16:41:53.678Z,3.37
2018-06-23T16:44:22.057Z,3.10
2018-06-23T16:46:50.529Z,2.63
2018-06-23T16:49:18.957Z,2.97
2018-06-23T16:51:47.394Z,2.80
2018-06-23T16:54:15.870Z,3.17
2018-06-23T16:56:44.554Z,2.80
2018-06-23T16:59:12.992Z,3.40
2018-06-23T17:01:41.404Z,2.40
2018-06-23T17:04:09.889Z,3.10
2018-06-23T17:06:38.285Z,3.43
2018-06-23T17:09:08.541Z,3.43
2018-06-23T17:11:36.647Z,4.67
2018-06-23T17:14:05.085Z,3.33
2018-06-23T17:16:33.204Z,2.90
2018-06-23T17:19:01.636Z,2.97
2018-06-23T17:21:30.360Z,3.50
2018-06-23T17:23:58.801Z,4.20
2018-06-23T17:26:27.248Z,3.27
2018-06-23T17:28:55.709Z,3.30
2018-06-23T17:31:24.149Z,3.67
2018-06-23T17:33:52.885Z,3.93
2018-06-23T17:36:21.317Z,3.20
2018-06-23T17:38:50.365Z,4.17
2018-06-23T17:41:18.825Z,3.53
2018-06-23T17:43:47.240Z,3.53
2018-06-23T17:46:15.706Z,3.67
2018-06-23T17:48:44.173Z,3.50
2018-06-23T17:51:12.620Z,5.07
2018-06-23T17:53:41.705Z,4.37
2018-06-23T17:56:10.141Z,3.70
2018-06-23T17:58:38.562Z,3.40
2018-06-23T18:01:07.028Z,4.30
2018-06-23T18:03:35.465Z,5.70
2018-06-23T18:06:04.038Z,4.43
2018-06-23T18:08:32.517Z,4.60
2018-06-23T18:11:01.020Z,4.80
2018-06-23T18:13:29.193Z,3.97
2018-06-23T18:15:57.644Z,3.33
2018-06-23T18:18:26.181Z,4.00
2018-06-23T18:20:54.637Z,4.13
2018-06-23T18:23:22.784Z,4.97
2018-06-23T18:25:51.232Z,3.60
2018-06-23T18:28:19.742Z,3.83
2018-06-23T18:30:48.199Z,4.00
2018-06-23T18:33:16.816Z,5.07
2018-06-23T18:35:45.305Z,3.20
2018-06-23T18:38:13.745Z,3.90
2018-06-23T18:40:42.240Z,4.10
2018-06-23T18:43:10.717Z,4.47
2018-06-23T18:45:39.188Z,5.73
2018-06-23T18:48:07.706Z,4.00
2018-06-23T18:50:36.149Z,4.23
2018-06-23T18:53:04.803Z,5.87
2018-06-23T18:55:33.301Z,4.73
2018-06-23T18:58:01.767Z,5.67
2018-06-23T19:00:30.341Z,6.62
2018-06-23T19:02:58.756Z,4.43
2018-06-23T19:05:27.357Z,5.00
2018-06-23T19:07:55.829Z,6.90
2018-06-23T19:10:24.309Z,4.70
2018-06-23T19:12:52.808Z,5.30
2018-06-23T19:15:21.591Z,5.97
2018-06-23T19:17:49.729Z,6.03
2018-06-23T19:20:18.211Z,6.40
2018-06-23T19:22:46.729Z,4.40
2018-06-23T19:25:15.185Z,5.97
2018-06-23T19:27:44.607Z,7.97
2018-06-23T19:30:13.127Z,5.47
2018-06-23T19:32:41.220Z,7.70
2018-06-23T19:35:09.717Z,8.70
2018-06-23T19:37:38.596Z,5.90
2018-06-23T19:40:07.077Z,7.83
2018-06-23T19:42:36.462Z,7.80
2018-06-23T19:45:04.969Z,5.10
2018-06-23T19:47:35.290Z,6.37
2018-06-23T19:50:03.831Z,5.63
2018-06-23T19:52:32.297Z,6.70
2018-06-23T19:55:01.063Z,7.90
2018-06-23T19:57:29.322Z,6.10
2018-06-23T19:59:57.456Z,6.03
2018-06-23T20:02:25.944Z,9.40
2018-06-23T20:04:54.560Z,5.70
2018-06-23T20:07:22.723Z,6.57
2018-06-23T20:09:51.192Z,6.90
2018-06-23T20:12:19.662Z,6.43
2018-06-23T20:14:48.125Z,7.13
2018-06-23T20:17:16.607Z,7.00
2018-06-23T20:19:45.093Z,7.37
2018-06-23T20:22:13.560Z,7.13
2018-06-23T20:24:42.071Z,8.67
2018-06-23T20:27:10.520Z,6.93
2018-06-23T20:29:38.980Z,8.73
2018-06-23T20:32:07.466Z,7.53
2018-06-23T20:34:35.950Z,7.47
2018-06-23T20:37:04.545Z,7.30
2018-06-23T20:39:33.082Z,6.40
2018-06-23T20:42:01.553Z,8.20
2018-06-23T20:44:29.692Z,8.10
2018-06-23T20:46:58.336Z,8.23
2018-06-23T20:49:26.802Z,9.60
2018-06-23T20:51:55.294Z,7.13
2018-06-23T20:54:23.710Z,8.17
2018-06-23T20:56:52.121Z,9.03
2018-06-23T20:59:20.244Z,6.93
2018-06-23T21:01:48.674Z,7.87
2018-06-23T21:04:17.130Z,7.17
2018-06-23T21:06:45.561Z,7.70
2018-06-23T21:09:13.992Z,8.00
2018-06-23T21:11:42.426Z,8.33
2018-06-23T21:14:10.901Z,9.17
2018-06-23T21:16:39.336Z,7.60
2018-06-23T21:19:07.827Z,6.30
2018-06-23T21:21:36.383Z,7.07
2018-06-23T21:24:04.861Z,7.87
2018-06-23T21:26:33.294Z,6.53
2018-06-23T21:29:01.793Z,8.30
2018-06-23T21:31:30.281Z,7.27
2018-06-23T21:33:58.785Z,9.10
2018-06-23T21:36:27.313Z,7.73
2018-06-23T21:38:55.845Z,7.80
2018-06-23T21:41:24.379Z,6.60
2018-06-23T21:43:52.843Z,6.40
2018-06-23T21:46:21.339Z,6.77
2018-06-23T21:48:49.821Z,9.13
2018-06-23T21:51:18.301Z,6.90
2018-06-23T21:53:46.779Z,7.20
2018-06-23T21:56:15.236Z,8.30
2018-06-23T21:58:43.705Z,7.33
2018-06-23T22:01:12.174Z,7.10
2018-06-23T22:03:40.296Z,7.33
2018-06-23T22:06:08.765Z,8.30
2018-06-23T22:08:37.221Z,8.37
2018-06-23T22:11:05.652Z,7.37
2018-06-23T22:13:34.084Z,8.73
2018-06-23T22:16:02.542Z,6.70
2018-06-23T22:18:30.965Z,8.17
2018-06-23T22:20:59.441Z,7.90
2018-06-23T22:23:27.892Z,8.07
2018-06-23T22:25:56.333Z,7.77
2018-06-23T22:28:24.748Z,7.60
2018-06-23T22:30:53.298Z,7.27
2018-06-23T22:33:21.713Z,8.60
2018-06-23T22:35:49.815Z,8.00
2018-06-23T22:38:18.237Z,8.03
2018-06-23T22:40:46.344Z,7.97
2018-06-23T22:43:14.777Z,8.60
2018-06-23T22:45:42.885Z,8.20
2018-06-23T22:48:11.331Z,8.40
2018-06-23T22:50:39.443Z,8.40
2018-06-23T22:53:07.880Z,7.60
2018-06-23T22:55:35.969Z,7.57
2018-06-23T22:58:04.084Z,7.47
2018-06-23T23:00:32.516Z,8.30
2018-06-23T23:03:00.963Z,8.73
2018-06-23T23:05:29.385Z,8.03
2018-06-23T23:07:57.833Z,8.40
2018-06-23T23:10:26.250Z,7.90
2018-06-23T23:12:54.733Z,8.57
2018-06-23T23:15:23.118Z,8.63
2018-06-23T23:17:51.590Z,8.60
2018-06-23T23:20:20.031Z,8.60
2018-06-23T23:22:48.140Z,9.23
2018-06-23T23:25:16.589Z,8.90
2018-06-23T23:27:45.021Z,7.70
2018-06-23T23:30:13.487Z,8.27
2018-06-23T23:32:41.933Z,8.13
2018-06-23T23:35:10.376Z,8.70
2018-06-23T23:37:38.821Z,9.40
2018-06-23T23:40:07.253Z,10.20
2018-06-23T23:42:35.373Z,10.17
2018-06-23T23:45:03.877Z,9.23
2018-06-23T23:47:32.566Z,8.90
2018-06-23T23:50:01.031Z,9.00
2018-06-23T23:52:29.441Z,10.43
2018-06-23T23:54:57.571Z,9.07
2018-06-23T23:57:26.009Z,10.40
2018-06-23T23:59:54.452Z,10.67
